Airfield :
LOGIN :

Register | Disclaimer

   EN    FR    IT 

 










Legend :    VFR   Marginal VFR   IFR   Intensive IFR   Very Intensive IFR
Visi :
Ceiling :
>= 8 km
>= 3000ft
5 to 8 km
1000 to 3000 ft
1500m to 5 km
500 to 1000 ft
800 to 1500m
200 to 500 ft
< 800m
< 200 ft
Symbols :   Thunderstorms  Fog  Heavy snow  Heavy precipitations  Wind > 20 kt
SIGMETs :     Misc.  Thunderstorms  Icing  Turbulence  Mountain Waves  Volcanic Ashes






- Airport Elevation : 299 ft
- IATA code : EDM


LFRI - La Roche Sur Yon - Les Ajoncs

CURRENT METAR :
  • 151630Z AUTO 01007KT 9999 OVC036 05/01 Q1029 NOSIG

EXPIRED METARs :
  • 151600Z AUTO 36008KT 9999 FEW031 OVC037 06/02 Q1029 NOSIG
  • 151530Z AUTO 01007KT 340V040 9999 OVC037 07/02 Q1029 NOSIG
  • 151500Z AUTO 34008KT 9999 OVC036 07/02 Q1029 NOSIG
  • 151430Z AUTO 34009KT 9999 BKN038 07/02 Q1029 NOSIG
  • 151400Z AUTO 35008KT 9999 BKN028 BKN035 06/02 Q1028 NOSIG

TAF TAF LFRI
Valid from the 15 at 12:00 until the 16 at 12:00 UTC


151100Z 1512/1612 34010KT 9999 SCT030
BECMG 1604/1606 15008KT
TEMPO 1606/1609 -RA
BECMG 1609/1612 3000 DZRA BKN010



MET'MAP, your aeronautical weather chart ! - Copyright ORBIFLY December 2007 - Disclaimer

ORBIFLY MET'MAP TEAM :

Programming & Development : Alexandra Zaïnal
Concept & original design : Baudouin d'Aumeries
Assistance for programming : Marc-Olivier Méhu
Technical & hardware support : Manuel Goepfert

Contact : metmap@orbifly.com




SOURCES & CREDITS :

   NOAA